Snyder, Nebraska
Current Conditions -  °F | °C
As of 2:15 PM on Wednesday 26 Nov 2014 (Local Time) from KFET Reporting Station
Overcast Overcast  
Wind Chill: 13°   Ceiling: 1400
Heat Index: 28°   Visibility: 10mi
Dew Point: 21°   Wind: 24mph
Humidity: 78%   Direction: 320°NW
Pressure: 30.21"   Gusts: 30mph
Location:  41.7°N, 96.79°W
Report Text: KFET 262015Z AUTO 32021G26KT 10SM OVC014 M02/M06 A3021 RMK AO2 T10251059
Loading
Personal Weather Stations






























Interactive Weather Map New forecast layout! Learn more

10-Day Weather Forecast

Advertisements
Track Severe Weather on mobile